Terminal Aerodrome Forecast
Issued by NWS Cleveland, OH

Home | Current Version | Previous Version | Graphics & Text | Print | Product List | Glossary On
Versions: 1 2 3 4 5 6 7 8 9 10 11 12 13 14 15 16 17 18 19 20 21 22 23 24 25
000
FTUS41 KCLE 221100
TAFCAK
TAF
KCAK 221120Z 2212/2312 30006KT 5SM BR OVC006
     FM221600 30005KT P6SM OVC015
     FM230000 30006KT P6SM SCT025 OVC045
     FM230400 30004KT P6SM OVC015=

USA.gov is the U.S. government's official web portal to all federal, state and local government web resources and services.